createdAt,value
2023-01-19T00:00:52.231Z,1.70
2023-01-19T00:03:19.128Z,1.70
2023-01-19T00:05:46.131Z,1.70
2023-01-19T00:08:16.366Z,1.70
2023-01-19T00:10:49.134Z,1.70
2023-01-19T00:13:16.356Z,1.70
2023-01-19T00:15:43.795Z,1.70
2023-01-19T00:18:11.316Z,1.70
2023-01-19T00:20:39.559Z,1.80
2023-01-19T00:23:08.127Z,1.80
2023-01-19T00:25:36.083Z,1.70
2023-01-19T00:28:03.029Z,1.80
2023-01-19T00:30:29.933Z,1.80
2023-01-19T00:32:57.152Z,1.90
2023-01-19T00:35:24.118Z,1.90
2023-01-19T00:37:51.181Z,1.90
2023-01-19T00:40:18.389Z,1.90
2023-01-19T00:42:45.721Z,1.90
2023-01-19T00:45:15.431Z,1.90
2023-01-19T00:47:42.621Z,2.00
2023-01-19T00:50:14.437Z,2.00
2023-01-19T00:52:41.748Z,2.00
2023-01-19T00:55:11.021Z,2.10
2023-01-19T00:57:40.627Z,2.10
2023-01-19T01:00:11.650Z,2.10
2023-01-19T01:02:39.882Z,2.10
2023-01-19T01:05:07.906Z,2.20
2023-01-19T01:07:40.554Z,2.20
2023-01-19T01:10:09.381Z,2.20
2023-01-19T01:12:36.984Z,2.30
2023-01-19T01:15:08.822Z,2.20
2023-01-19T01:17:35.824Z,2.20
2023-01-19T01:20:04.654Z,2.30
2023-01-19T01:22:31.730Z,2.30
2023-01-19T01:24:58.556Z,2.30
2023-01-19T01:27:25.409Z,2.30
2023-01-19T01:29:52.172Z,2.30
2023-01-19T01:32:19.012Z,2.20
2023-01-19T01:34:45.835Z,2.20
2023-01-19T01:37:12.612Z,2.20
2023-01-19T01:39:39.434Z,2.20
2023-01-19T01:42:19.277Z,2.20
2023-01-19T01:44:58.839Z,2.20
2023-01-19T01:47:42.934Z,2.20
2023-01-19T01:50:15.900Z,2.20
2023-01-19T01:53:07.589Z,2.10
2023-01-19T01:55:39.774Z,2.20
2023-01-19T01:58:08.760Z,2.30
2023-01-19T02:00:55.587Z,2.30
2023-01-19T02:03:25.298Z,2.30
2023-01-19T02:05:57.515Z,2.30
2023-01-19T02:09:02.264Z,2.30
2023-01-19T02:11:49.251Z,2.40
2023-01-19T02:14:16.154Z,2.60
2023-01-19T02:16:43.081Z,2.40
2023-01-19T02:19:14.370Z,2.50
2023-01-19T02:21:44.326Z,2.50
2023-01-19T02:24:11.629Z,2.60
2023-01-19T02:26:48.831Z,2.50
2023-01-19T02:29:19.275Z,2.60
2023-01-19T02:31:46.649Z,2.70
2023-01-19T02:34:16.919Z,2.60
2023-01-19T02:37:08.649Z,2.60
2023-01-19T02:39:40.651Z,2.60
2023-01-19T02:42:22.622Z,2.60
2023-01-19T02:44:52.531Z,2.60
2023-01-19T02:47:19.848Z,2.60
2023-01-19T02:49:58.534Z,2.70
2023-01-19T02:52:26.690Z,2.70
2023-01-19T02:55:18.139Z,2.70
2023-01-19T02:57:56.731Z,2.70
2023-01-19T03:00:46.057Z,2.70
2023-01-19T03:03:39.311Z,2.70
2023-01-19T03:06:33.453Z,2.70
2023-01-19T03:09:19.265Z,2.70
2023-01-19T03:11:54.764Z,2.70
2023-01-19T03:14:25.121Z,2.70
2023-01-19T03:16:57.788Z,2.70
2023-01-19T03:19:33.181Z,2.80
2023-01-19T03:22:14.367Z,2.80
2023-01-19T03:24:45.173Z,2.80
2023-01-19T03:27:23.203Z,2.70
2023-01-19T03:29:57.868Z,2.70
2023-01-19T03:32:32.098Z,2.70
2023-01-19T03:35:02.428Z,2.80
2023-01-19T03:37:31.643Z,2.80
2023-01-19T03:39:58.533Z,2.70
2023-01-19T03:42:27.507Z,2.80
2023-01-19T03:44:56.456Z,2.70
2023-01-19T03:47:24.059Z,2.70
2023-01-19T03:49:52.924Z,2.70
2023-01-19T03:52:30.274Z,2.80
2023-01-19T03:54:57.131Z,2.80
2023-01-19T03:57:23.975Z,2.80
2023-01-19T03:59:50.844Z,2.80
2023-01-19T04:02:17.835Z,2.80
2023-01-19T04:04:44.803Z,2.80
2023-01-19T04:07:11.676Z,2.80
2023-01-19T04:09:38.466Z,2.80
2023-01-19T04:12:05.479Z,2.90
2023-01-19T04:14:32.294Z,2.80
2023-01-19T04:16:59.085Z,2.80
2023-01-19T04:19:25.917Z,2.90
2023-01-19T04:21:52.786Z,2.80
2023-01-19T04:24:19.568Z,2.80
2023-01-19T04:26:46.347Z,2.90
2023-01-19T04:29:14.433Z,2.80
2023-01-19T04:31:41.342Z,2.80
2023-01-19T04:34:08.226Z,2.80
2023-01-19T04:36:35.347Z,2.90
2023-01-19T04:39:02.259Z,2.80
2023-01-19T04:41:30.325Z,2.90
2023-01-19T04:43:57.898Z,2.90
2023-01-19T04:46:24.833Z,2.90
2023-01-19T04:48:51.614Z,2.90
2023-01-19T04:51:18.468Z,2.90
2023-01-19T04:53:45.333Z,2.90
2023-01-19T04:56:12.401Z,2.90
2023-01-19T04:58:39.481Z,2.90
2023-01-19T05:01:10.007Z,2.90
2023-01-19T05:03:36.987Z,2.90
2023-01-19T05:06:04.033Z,2.90
2023-01-19T05:08:31.055Z,2.90
2023-01-19T05:10:57.987Z,2.90
2023-01-19T05:13:24.830Z,2.90
2023-01-19T05:15:51.674Z,2.90
2023-01-19T05:18:18.875Z,2.90
2023-01-19T05:20:45.759Z,2.90
2023-01-19T05:23:12.767Z,2.90
2023-01-19T05:25:39.547Z,2.90
2023-01-19T05:28:06.329Z,2.90
2023-01-19T05:30:33.142Z,2.90
2023-01-19T05:33:00.535Z,2.90
2023-01-19T05:35:35.530Z,2.90
2023-01-19T05:38:02.851Z,2.90
2023-01-19T05:40:29.715Z,3.00
2023-01-19T05:43:01.117Z,3.00
2023-01-19T05:45:28.456Z,3.00
2023-01-19T05:47:56.224Z,3.00
2023-01-19T05:50:23.432Z,3.00
2023-01-19T05:52:50.290Z,3.00
2023-01-19T05:55:17.235Z,3.00
2023-01-19T05:57:44.100Z,3.00
2023-01-19T06:00:11.692Z,3.00
2023-01-19T06:02:38.637Z,3.00
2023-01-19T06:05:05.804Z,3.00
2023-01-19T06:07:32.710Z,3.00
2023-01-19T06:09:59.550Z,2.90
2023-01-19T06:12:26.359Z,2.90
2023-01-19T06:14:53.254Z,2.90
2023-01-19T06:17:20.536Z,2.90
2023-01-19T06:19:47.390Z,2.90
2023-01-19T06:22:14.212Z,2.80
2023-01-19T06:24:41.124Z,2.90
2023-01-19T06:27:08.480Z,2.80
2023-01-19T06:29:35.335Z,2.80
2023-01-19T06:32:02.194Z,2.90
2023-01-19T06:34:29.124Z,2.80
2023-01-19T06:36:56.550Z,2.90
2023-01-19T06:39:23.424Z,2.90
2023-01-19T06:41:50.511Z,2.90
2023-01-19T06:44:17.387Z,2.90
2023-01-19T06:46:44.210Z,2.90
2023-01-19T06:49:10.994Z,2.90
2023-01-19T06:51:37.836Z,2.90
2023-01-19T06:54:05.205Z,3.00
2023-01-19T06:56:32.550Z,3.00
2023-01-19T06:58:59.429Z,2.90
2023-01-19T07:01:27.011Z,2.90
2023-01-19T07:03:54.562Z,2.90
2023-01-19T07:06:21.387Z,2.90
2023-01-19T07:08:48.199Z,2.90
2023-01-19T07:11:25.073Z,2.90
2023-01-19T07:13:58.261Z,2.90
2023-01-19T07:16:25.377Z,2.90
2023-01-19T07:18:52.358Z,3.10
2023-01-19T07:21:19.368Z,2.90
2023-01-19T07:23:49.094Z,2.90
2023-01-19T07:26:18.598Z,2.90
2023-01-19T07:28:47.377Z,2.90
2023-01-19T07:31:15.859Z,3.00
2023-01-19T07:33:42.814Z,2.90
2023-01-19T07:36:10.358Z,2.90
2023-01-19T07:38:37.146Z,2.90
2023-01-19T07:41:05.876Z,2.90
2023-01-19T07:43:33.559Z,2.90
2023-01-19T07:46:02.500Z,2.90
2023-01-19T07:48:29.363Z,3.00
2023-01-19T07:51:00.974Z,2.90
2023-01-19T07:53:27.873Z,2.90
2023-01-19T07:55:56.501Z,2.90
2023-01-19T07:58:27.010Z,2.90
2023-01-19T08:00:53.996Z,2.90
2023-01-19T08:03:20.987Z,2.80
2023-01-19T08:05:52.863Z,2.90
2023-01-19T08:08:20.323Z,2.80
2023-01-19T08:10:50.444Z,2.90
2023-01-19T08:13:17.803Z,2.90
2023-01-19T08:15:44.776Z,2.90
2023-01-19T08:18:11.709Z,2.80
2023-01-19T08:20:38.783Z,2.80
2023-01-19T08:23:05.646Z,2.90
2023-01-19T08:25:38.314Z,2.80
2023-01-19T08:28:06.806Z,2.80
2023-01-19T08:30:34.036Z,2.80
2023-01-19T08:33:04.674Z,2.80
2023-01-19T08:35:33.040Z,2.80
2023-01-19T08:38:01.678Z,2.80
2023-01-19T08:40:29.748Z,2.80
2023-01-19T08:43:05.762Z,2.80
2023-01-19T08:45:32.557Z,2.70
2023-01-19T08:47:59.851Z,2.80
2023-01-19T08:50:28.690Z,2.80
2023-01-19T08:53:00.941Z,2.80
2023-01-19T08:55:29.039Z,2.80
2023-01-19T08:57:58.094Z,2.90
2023-01-19T09:00:25.443Z,3.00
2023-01-19T09:02:52.359Z,3.00
2023-01-19T09:05:19.809Z,3.00
2023-01-19T09:07:48.056Z,3.00
2023-01-19T09:10:15.674Z,3.00
2023-01-19T09:12:43.510Z,3.00
2023-01-19T09:15:12.295Z,3.10
2023-01-19T09:17:39.523Z,3.00
2023-01-19T09:20:06.838Z,3.10
2023-01-19T09:22:33.894Z,3.10
2023-01-19T09:25:00.717Z,3.10
2023-01-19T09:27:27.508Z,3.20
2023-01-19T09:29:54.294Z,3.20
2023-01-19T09:32:22.937Z,3.30
2023-01-19T09:34:49.849Z,3.30
2023-01-19T09:37:16.603Z,3.30
2023-01-19T09:39:43.460Z,3.30
2023-01-19T09:42:33.157Z,3.40
2023-01-19T09:45:02.682Z,3.30
2023-01-19T09:47:31.367Z,3.30
2023-01-19T09:50:10.573Z,3.30
2023-01-19T09:52:42.851Z,3.40
2023-01-19T09:55:26.113Z,3.40
2023-01-19T09:57:54.003Z,3.40
2023-01-19T10:00:22.854Z,3.40
2023-01-19T10:02:59.095Z,3.40
2023-01-19T10:05:37.096Z,3.40
2023-01-19T10:08:30.710Z,3.50
2023-01-19T10:10:58.462Z,3.50
2023-01-19T10:13:51.836Z,3.60
2023-01-19T10:16:35.585Z,3.60
2023-01-19T10:19:21.646Z,3.60
2023-01-19T10:21:50.607Z,3.50
2023-01-19T10:24:35.895Z,3.60
2023-01-19T10:27:03.587Z,3.60
2023-01-19T10:29:38.689Z,3.70
2023-01-19T10:32:22.602Z,3.70
2023-01-19T10:34:50.752Z,3.70
2023-01-19T10:37:17.527Z,3.70
2023-01-19T10:39:53.769Z,3.70
2023-01-19T10:42:20.855Z,3.60
2023-01-19T10:44:49.053Z,3.60
2023-01-19T10:47:20.850Z,3.70
2023-01-19T10:49:48.807Z,3.70
2023-01-19T10:52:36.452Z,3.70
2023-01-19T10:55:06.702Z,3.60
2023-01-19T10:57:38.367Z,3.60
2023-01-19T11:00:07.585Z,3.60
2023-01-19T11:02:34.590Z,3.70
2023-01-19T11:05:25.643Z,3.70
2023-01-19T11:07:52.548Z,3.70
2023-01-19T11:10:22.970Z,3.70
2023-01-19T11:13:15.944Z,3.70
2023-01-19T11:15:44.566Z,3.70
2023-01-19T11:18:28.611Z,3.70
2023-01-19T11:20:59.100Z,3.70
2023-01-19T11:23:30.896Z,3.70
2023-01-19T11:26:01.400Z,3.70
2023-01-19T11:28:35.096Z,3.70
2023-01-19T11:31:10.475Z,3.70
2023-01-19T11:33:43.669Z,3.70
2023-01-19T11:36:21.014Z,3.60
2023-01-19T11:38:53.358Z,3.70
2023-01-19T11:41:27.840Z,3.60
2023-01-19T11:44:09.653Z,3.60
2023-01-19T11:46:40.557Z,3.60
2023-01-19T11:49:18.825Z,3.60
2023-01-19T11:52:04.102Z,3.60
2023-01-19T11:54:36.760Z,3.60
2023-01-19T11:57:12.312Z,3.50
2023-01-19T11:59:39.312Z,3.60
2023-01-19T12:02:21.390Z,3.60
2023-01-19T12:04:50.161Z,3.60
2023-01-19T12:07:22.155Z,3.50
2023-01-19T12:09:56.951Z,3.50
2023-01-19T12:12:33.329Z,3.60
2023-01-19T12:15:02.257Z,3.70
2023-01-19T12:17:50.012Z,3.70
2023-01-19T12:20:25.201Z,3.80
2023-01-19T12:23:07.055Z,3.80
2023-01-19T12:26:01.625Z,3.80
2023-01-19T12:28:34.925Z,3.80
2023-01-19T12:31:02.625Z,3.80
2023-01-19T12:33:34.269Z,3.80
2023-01-19T12:36:03.967Z,3.80
2023-01-19T12:38:52.699Z,3.80
2023-01-19T12:41:36.928Z,3.80
2023-01-19T12:44:10.269Z,3.90
2023-01-19T12:47:03.910Z,3.90
2023-01-19T12:49:45.411Z,4.00
2023-01-19T12:52:35.023Z,3.90
2023-01-19T12:55:13.811Z,4.00
2023-01-19T12:58:05.793Z,4.00
2023-01-19T13:00:42.977Z,3.90
2023-01-19T13:03:18.888Z,3.90
2023-01-19T13:05:52.780Z,3.90
2023-01-19T13:08:22.103Z,3.90
2023-01-19T13:11:01.927Z,3.90
2023-01-19T13:13:37.701Z,3.90
2023-01-19T13:16:20.029Z,4.00
2023-01-19T13:19:07.300Z,4.00
2023-01-19T13:21:46.883Z,4.00
2023-01-19T13:24:19.513Z,4.10
2023-01-19T13:26:49.390Z,4.10
2023-01-19T13:29:35.519Z,4.20
2023-01-19T13:32:15.961Z,4.20
2023-01-19T13:34:50.554Z,4.30
2023-01-19T13:37:22.951Z,4.30
2023-01-19T13:39:52.506Z,4.30
2023-01-19T13:42:30.049Z,4.40
2023-01-19T13:45:00.794Z,4.40
2023-01-19T13:47:42.726Z,4.30
2023-01-19T13:50:31.240Z,4.40
2023-01-19T13:52:59.319Z,4.40
2023-01-19T13:55:28.456Z,4.40
2023-01-19T13:57:56.228Z,4.60
2023-01-19T14:00:33.406Z,4.30
2023-01-19T14:03:21.580Z,4.40
2023-01-19T14:05:52.289Z,4.50
2023-01-19T14:08:20.346Z,4.50
2023-01-19T14:11:02.047Z,4.50
2023-01-19T14:13:34.203Z,4.50
2023-01-19T14:16:23.738Z,4.50
2023-01-19T14:19:00.476Z,4.60
2023-01-19T14:21:41.203Z,4.50
2023-01-19T14:24:19.540Z,4.50
2023-01-19T14:26:54.701Z,4.40
2023-01-19T14:29:33.178Z,4.70
2023-01-19T14:32:11.462Z,4.40
2023-01-19T14:34:44.289Z,4.40
2023-01-19T14:37:33.945Z,4.50
2023-01-19T14:40:18.450Z,4.40
2023-01-19T14:43:03.376Z,4.30
2023-01-19T14:45:32.985Z,4.30
2023-01-19T14:48:17.737Z,4.50
2023-01-19T14:51:04.345Z,4.40
2023-01-19T14:53:38.336Z,4.30
2023-01-19T14:56:06.789Z,4.30
2023-01-19T14:58:35.667Z,4.30
2023-01-19T15:01:03.076Z,4.20
2023-01-19T15:03:43.344Z,4.30
2023-01-19T15:06:14.984Z,4.30
2023-01-19T15:08:42.612Z,4.30
2023-01-19T15:11:16.046Z,4.30
2023-01-19T15:13:44.322Z,4.40
2023-01-19T15:16:11.259Z,4.40
2023-01-19T15:18:38.834Z,4.30
2023-01-19T15:21:05.870Z,4.30
2023-01-19T15:23:33.109Z,4.30
2023-01-19T15:26:01.500Z,4.20
2023-01-19T15:28:29.101Z,4.20
2023-01-19T15:30:57.604Z,4.30
2023-01-19T15:33:26.500Z,4.30
2023-01-19T15:35:53.869Z,4.20
2023-01-19T15:38:20.761Z,4.20
2023-01-19T15:40:51.448Z,4.40
2023-01-19T15:43:18.840Z,4.20
2023-01-19T15:45:56.964Z,4.20
2023-01-19T15:48:23.879Z,4.10
2023-01-19T15:50:50.625Z,4.00
2023-01-19T15:53:19.927Z,4.00
2023-01-19T15:55:52.522Z,4.00
2023-01-19T15:58:20.675Z,3.90
2023-01-19T16:00:55.499Z,3.80
2023-01-19T16:03:22.670Z,3.70
2023-01-19T16:05:49.552Z,3.70
2023-01-19T16:08:16.386Z,3.80
2023-01-19T16:10:43.290Z,3.80
2023-01-19T16:13:11.462Z,3.70
2023-01-19T16:15:39.641Z,3.70
2023-01-19T16:18:06.784Z,3.60
2023-01-19T16:20:33.584Z,3.50
2023-01-19T16:23:14.539Z,3.50
2023-01-19T16:25:42.004Z,3.50
2023-01-19T16:28:09.111Z,3.40
2023-01-19T16:30:36.100Z,3.40
2023-01-19T16:33:03.037Z,3.40
2023-01-19T16:35:29.922Z,3.40
2023-01-19T16:37:56.731Z,3.40
2023-01-19T16:40:23.559Z,3.40
2023-01-19T16:42:51.068Z,3.30
2023-01-19T16:45:17.864Z,3.30
2023-01-19T16:47:50.411Z,3.20
2023-01-19T16:50:17.326Z,3.10
2023-01-19T16:52:44.598Z,3.10
2023-01-19T16:55:11.564Z,3.10
2023-01-19T16:57:41.685Z,3.00
2023-01-19T17:00:10.460Z,3.10
2023-01-19T17:02:37.868Z,3.00
2023-01-19T17:05:05.097Z,3.00
2023-01-19T17:07:31.885Z,2.90
2023-01-19T17:09:58.841Z,2.90
2023-01-19T17:12:25.658Z,2.80
2023-01-19T17:14:52.426Z,2.90
2023-01-19T17:17:19.254Z,2.80
2023-01-19T17:19:46.132Z,2.80
2023-01-19T17:22:14.233Z,2.90
2023-01-19T17:24:42.499Z,2.90
2023-01-19T17:27:10.012Z,2.90
2023-01-19T17:29:36.871Z,2.80
2023-01-19T17:32:04.099Z,2.80
2023-01-19T17:34:31.000Z,2.80
2023-01-19T17:37:03.029Z,2.80
2023-01-19T17:39:30.387Z,2.70
2023-01-19T17:41:57.347Z,2.80
2023-01-19T17:44:24.209Z,2.80
2023-01-19T17:46:51.162Z,2.80
2023-01-19T17:49:18.076Z,2.80
2023-01-19T17:51:45.030Z,2.80
2023-01-19T17:54:12.456Z,2.70
2023-01-19T17:56:41.246Z,2.80
2023-01-19T17:59:08.514Z,2.70
2023-01-19T18:01:39.766Z,2.70
2023-01-19T18:04:08.047Z,2.70
2023-01-19T18:06:35.011Z,2.70
2023-01-19T18:09:01.872Z,2.70
2023-01-19T18:11:29.038Z,2.60
2023-01-19T18:13:56.155Z,2.60
2023-01-19T18:16:29.178Z,2.60
2023-01-19T18:18:56.829Z,2.60
2023-01-19T18:21:27.356Z,2.50
2023-01-19T18:24:01.120Z,2.50
2023-01-19T18:26:29.246Z,2.50
2023-01-19T18:28:57.167Z,2.40
2023-01-19T18:31:24.922Z,2.40
2023-01-19T18:33:51.828Z,2.60
2023-01-19T18:36:19.021Z,2.50
2023-01-19T18:38:46.010Z,2.40
2023-01-19T18:41:17.807Z,2.40
2023-01-19T18:43:45.078Z,2.40
2023-01-19T18:46:12.435Z,2.40
2023-01-19T18:48:39.971Z,2.30
2023-01-19T18:51:13.637Z,2.40
2023-01-19T18:53:40.796Z,2.30
2023-01-19T18:56:10.839Z,2.30
2023-01-19T18:58:38.803Z,2.20
2023-01-19T19:01:21.804Z,2.20
2023-01-19T19:03:48.836Z,2.10
2023-01-19T19:06:16.910Z,2.10
2023-01-19T19:08:44.215Z,2.10
2023-01-19T19:11:13.913Z,2.10
2023-01-19T19:13:40.988Z,2.20
2023-01-19T19:16:10.354Z,2.10
2023-01-19T19:18:38.416Z,2.10
2023-01-19T19:21:10.343Z,2.10
2023-01-19T19:23:38.393Z,2.20
2023-01-19T19:26:07.937Z,2.30
2023-01-19T19:28:36.489Z,2.30
2023-01-19T19:31:12.368Z,2.20
2023-01-19T19:33:40.166Z,2.20
2023-01-19T19:36:08.522Z,2.10
2023-01-19T19:38:43.522Z,2.10
2023-01-19T19:41:13.589Z,2.10
2023-01-19T19:43:40.626Z,2.10
2023-01-19T19:46:10.593Z,2.20
2023-01-19T19:48:39.429Z,2.10
2023-01-19T19:51:25.416Z,2.20
2023-01-19T19:53:53.558Z,2.20
2023-01-19T19:56:23.035Z,2.20
2023-01-19T19:58:50.951Z,2.20
2023-01-19T20:01:20.190Z,2.20
2023-01-19T20:03:47.418Z,2.20
2023-01-19T20:06:21.383Z,2.10
2023-01-19T20:08:49.465Z,2.20
2023-01-19T20:11:18.717Z,2.10
2023-01-19T20:13:47.548Z,2.00
2023-01-19T20:16:17.591Z,2.00
2023-01-19T20:18:51.579Z,2.00
2023-01-19T20:21:22.905Z,2.00
2023-01-19T20:23:50.623Z,2.00
2023-01-19T20:26:20.660Z,1.90
2023-01-19T20:28:47.745Z,2.00
2023-01-19T20:31:17.673Z,2.10
2023-01-19T20:33:45.490Z,2.00
2023-01-19T20:36:12.863Z,2.00
2023-01-19T20:38:40.813Z,2.00
2023-01-19T20:41:09.849Z,2.10
2023-01-19T20:43:36.800Z,2.20
2023-01-19T20:46:05.670Z,2.10
2023-01-19T20:48:32.804Z,2.10
2023-01-19T20:51:01.679Z,2.10
2023-01-19T20:53:29.146Z,2.10
2023-01-19T20:55:56.001Z,2.20
2023-01-19T20:58:23.494Z,2.20
2023-01-19T21:00:50.906Z,2.10
2023-01-19T21:03:17.851Z,2.10
2023-01-19T21:05:48.318Z,2.10
2023-01-19T21:08:15.745Z,2.10
2023-01-19T21:10:43.007Z,2.10
2023-01-19T21:13:09.828Z,2.10
2023-01-19T21:15:37.200Z,2.20
2023-01-19T21:18:04.382Z,2.20
2023-01-19T21:20:31.303Z,2.30
2023-01-19T21:22:58.969Z,2.30
2023-01-19T21:25:25.864Z,2.30
2023-01-19T21:27:52.698Z,2.30
2023-01-19T21:30:19.684Z,2.30
2023-01-19T21:32:46.561Z,2.40
2023-01-19T21:35:13.607Z,2.30
2023-01-19T21:37:40.724Z,2.30
2023-01-19T21:40:08.390Z,2.30
2023-01-19T21:42:35.533Z,2.30
2023-01-19T21:45:02.352Z,2.20
2023-01-19T21:47:29.119Z,2.30
2023-01-19T21:49:55.909Z,2.30
2023-01-19T21:52:22.739Z,2.30
2023-01-19T21:54:49.546Z,2.30
2023-01-19T21:57:19.556Z,2.40
2023-01-19T21:59:46.422Z,2.30
2023-01-19T22:02:13.365Z,2.30
2023-01-19T22:04:40.753Z,2.40
2023-01-19T22:07:07.652Z,2.30
2023-01-19T22:09:35.307Z,2.30
2023-01-19T22:12:02.885Z,2.40
2023-01-19T22:14:29.924Z,2.40
2023-01-19T22:16:56.712Z,2.50
2023-01-19T22:19:23.541Z,2.50
2023-01-19T22:21:50.347Z,2.80
2023-01-19T22:24:17.205Z,2.60
2023-01-19T22:26:43.993Z,2.50
2023-01-19T22:29:11.852Z,2.50
2023-01-19T22:31:39.694Z,2.50
2023-01-19T22:34:10.435Z,2.50
2023-01-19T22:36:37.874Z,2.50
2023-01-19T22:39:07.104Z,2.50
2023-01-19T22:41:43.007Z,2.50
2023-01-19T22:44:18.110Z,2.50
2023-01-19T22:46:44.994Z,2.50
2023-01-19T22:49:14.448Z,2.50
2023-01-19T22:51:41.521Z,2.60
2023-01-19T22:54:08.365Z,2.60
2023-01-19T22:56:37.691Z,2.70
2023-01-19T22:59:05.177Z,2.60
2023-01-19T23:01:37.930Z,2.70
2023-01-19T23:04:05.771Z,2.70
2023-01-19T23:06:34.736Z,2.60
2023-01-19T23:09:04.860Z,2.60
2023-01-19T23:11:42.864Z,2.70
2023-01-19T23:14:14.552Z,2.70
2023-01-19T23:16:41.849Z,2.70
2023-01-19T23:19:11.463Z,2.60
2023-01-19T23:21:38.305Z,2.60
2023-01-19T23:24:05.826Z,2.60
2023-01-19T23:26:38.094Z,2.60
2023-01-19T23:29:12.301Z,2.60
2023-01-19T23:31:44.205Z,2.60
2023-01-19T23:34:12.718Z,2.60
2023-01-19T23:36:41.084Z,2.60
2023-01-19T23:39:17.497Z,2.60
2023-01-19T23:41:44.468Z,2.60
2023-01-19T23:44:11.412Z,2.70
2023-01-19T23:46:38.397Z,2.80
2023-01-19T23:49:05.436Z,2.70
2023-01-19T23:51:32.928Z,2.70
2023-01-19T23:54:00.490Z,2.70
2023-01-19T23:56:30.013Z,2.70
2023-01-19T23:59:04.418Z,2.70
